West Willington, CT

4:27 AM EST on January 22, 2017 (GMT -0500)
NE Tolland | | Change Station

Elev 710 ft 41.91 °N, 72.31 °W | Updated 81 days ago

Fog
Fog
46.2 °F
Feels Like 46 °F
N
2.5
Wind Variable Wind from ENE
Gusts 2.7 mph

Today
High -- | Low -- °F
--% Chance of Precip.
Yesterday
High -- | Low -- °F
Precip. -- in
Pressure 29.76 in
Visibility 0.5 miles
Clouds Overcast 200 ft
Windchill 46 °F
Dew Point 33 °F
Humidity 60%
Rainfall 0.00 in
Snow Depth Not available.
7:10 AM 4:52 PM
Waning Crescent, 28% visible
METAR KIJD 220852Z AUTO 00000KT 1/2SM FG OVC002 02/02 A2975 RMK AO2 SLP076 T00220022 56006
Pressure 29.76 in
Visibility 0.5 miles
Clouds Overcast 200 ft
Windchill 46 °F
Dew Point 33 °F
Humidity 60%
Rainfall 0.00 in
Snow Depth Not available.
7:10 AM 4:52 PM
Waning Crescent, 28% visible
METAR KIJD 220852Z AUTO 00000KT 1/2SM FG OVC002 02/02 A2975 RMK AO2 SLP076 T00220022 56006

Get Your Daily Forecast Email!

Thanks for signing up!

Be on the lookout for a verification email in your inbox.

You'll start receiving the daily forecast at 8 AM.

×

10-Day Weather Forecast

Almanac

Astronomy

Jan. 22, 2017 Rise Set
Actual Time
Civil Twilight
Nautical Twilight
Astronomical Twilight
Moon
Length of Visible Light
Length of Day
Tomorrow will be .
, % of the Moon is Illuminated

Today's Extremes

State Highs State Lows

Community

WunderPhotos

Upload Photos

1,962,540 photos uploaded!

WunderBlog® & News

Nearby

Air Quality

  Air Quality AQ Index Pollutant
Not available.

Snow Depth

Station Depth Elevation

Earthquake Activity

City Distance Mag. Time & Date
Minimum magnitude displayed is 2.5.

Coastal Water Temperatures

Place Temperature

Stations

Nearby Weather Stations

Station Location Temp. Windchill Dew Point Humidity Wind Precip. Elev Updated Type
                   

Watches & Warnings

Marine Fog Advisory, Storm Warning
Issued: 6:56 PM EST Jan. 21, 2017 – National Weather Service

... Dense fog advisory in effect until 10 am EST Sunday...
... Storm Warning remains in effect from 1 am Monday to 1 am EST
Tuesday...

The National Weather Service in Upton has issued a dense fog
advisory... which is in effect until 10 am EST Sunday.

* Winds and seas... east winds 35 to 45 kt with gusts 50 to 55 kt.
Seas 7 to 11 feet... and as high as 9 to 12 feet east of Orient
Point.

* Visibility... 1 nm or less through early Sunday morning.

Precautionary/preparedness actions...

A Storm Warning means sustained winds or frequent gusts of 48 to
63 kt are expected or occurring. Recreational boaters should
remain in port... or take shelter until winds and waves subside.
Commercial vessels should prepare for very strong winds and
dangerous sea conditions... and consider remaining in port or
taking shelter in port until winds and waves subside.

A dense fog advisory means visibilities will frequently be
reduced to less than one mile. Inexperienced mariners...
especially those operating smaller vessels should avoid
navigating in these conditions.